Wilson Gdynia — 8PSA — position and weather

sailwx.info

Track history (hours):
 
Tides and Currents Weather Stations Pressure Air Temp Water Temp Dewpoint Dewpoint Depression Visibility Wind Speed Wind Dir Waves Ship Positions

Wilson Gdynia

Last reported at 2017-Feb-24 10:33 UTC. Time now 2017-Feb-24 10:41 UTC.
Position N 54°34' E 011°19'.

Length 88 m; draft 5.6 m.

Type: Ship (hazmat cat C). MMSI: 314192000.

Date/timePositionNaut miles runAvg speedWind from/ knotsBaromVisibWave heightAir tempDewpointWater temp
2017-Feb-24 10:33N 54°34' E 011°19'9 8.8
2017-Feb-24 09:33N 54°30' E 011°33'9 8.8
2017-Feb-24 08:33N 54°27' E 011°47'9 8.7
2017-Feb-24 07:33N 54°27' E 012°02'8 8.1
2017-Feb-24 06:34N 54°32' E 012°12'9 9.2
2017-Feb-24 05:33N 54°39' E 012°22'198 8.2
2017-Feb-23 05:18N 54°57' E 018°04'2 3.2
2017-Feb-23 04:33N 54°57' E 018°08'4 3.6
2017-Feb-23 03:33N 54°57' E 018°14'4 4.0
2017-Feb-23 02:34N 54°57' E 018°21'4 3.9
2017-Feb-23 01:33N 54°57' E 018°28'4 4.0
2017-Feb-23 00:33N 54°57' E 018°35'5 5.4
2017-Feb-22 23:34N 54°53' E 018°42'7 6.9
2017-Feb-22 22:34N 54°49' E 018°52'7 6.8
2017-Feb-22 21:34N 54°44' E 018°59'9 8.9
2017-Feb-22 20:34N 54°35' E 018°54'10 9.9
2017-Feb-22 19:33N 54°28' E 018°42'6 6.0
2017-Feb-22 18:33N 54°22' E 018°40'0 0.5
2017-Feb-22 17:32N 54°22' E 018°40'0 0.0
2017-Feb-22 16:32N 54°22' E 018°40'0 0.0
2017-Feb-22 15:32N 54°22' E 018°40'0 0.0
2017-Feb-22 14:32N 54°22' E 018°40'0 0.0
2017-Feb-22 13:32N 54°22' E 018°40'0 0.0
2017-Feb-22 12:32N 54°22' E 018°40'0 0.0
2017-Feb-22 11:32N 54°22' E 018°40'0 0.0
2017-Feb-22 10:32N 54°22' E 018°40'0 0.0
2017-Feb-22 09:32N 54°22' E 018°40'0 0.0
2017-Feb-22 08:32N 54°22' E 018°40'0 0.0
2017-Feb-22 07:32N 54°22' E 018°40'0 0.0
2017-Feb-22 06:32N 54°22' E 018°40'0 0.0
2017-Feb-22 05:32N 54°22' E 018°40'0 0.0
2017-Feb-22 04:32N 54°22' E 018°40'0 0.0
2017-Feb-22 03:32N 54°22' E 018°40'0 0.0
2017-Feb-22 02:32N 54°22' E 018°40'0 0.0
2017-Feb-22 01:32N 54°22' E 018°40'0 0.0
2017-Feb-22 00:32N 54°22' E 018°40'0 0.0
2017-Feb-21 23:32N 54°22' E 018°40'0 0.0
2017-Feb-21 22:32N 54°22' E 018°40'0 0.0
2017-Feb-21 21:32N 54°22' E 018°40'0 0.0
2017-Feb-21 20:32N 54°22' E 018°40'0 0.0
2017-Feb-21 19:29N 54°22' E 018°40'0 0.1
2017-Feb-21 18:32N 54°22' E 018°40'0 0.0
2017-Feb-21 17:32N 54°22' E 018°40'0 0.0
2017-Feb-21 16:29N 54°22' E 018°40'0 0.0
2017-Feb-21 15:32N 54°22' E 018°40'0 0.0
2017-Feb-21 14:32N 54°22' E 018°40'0 0.0
2017-Feb-21 13:32N 54°22' E 018°40'0 0.0
2017-Feb-21 12:32N 54°22' E 018°40'0 0.0
2017-Feb-21 11:32N 54°22' E 018°40'0 0.0
2017-Feb-21 10:32N 54°22' E 018°40'1 1.3
2017-Feb-21 09:33N 54°24' E 018°41'7 7.0
2017-Feb-21 08:33N 54°30' E 018°45'8 7.9
2017-Feb-21 07:34N 54°36' E 018°53'8 8.2
2017-Feb-21 06:33N 54°43' E 019°02'6 5.7
2017-Feb-21 05:33N 54°47' E 019°09'5 5.1
2017-Feb-21 04:33N 54°50' E 019°16'5 4.7
2017-Feb-21 03:33N 54°53' E 019°22'4 4.3
2017-Feb-21 02:33N 54°56' E 019°27'  
2017-Feb-18 01:23N 54°58' E 019°31'8 9.6
2017-Feb-18 00:33N 54°52' E 019°21'9 9.5
2017-Feb-17 23:33N 54°46' E 019°09'1010.0
2017-Feb-17 22:33N 54°39' E 018°57'1010.0
2017-Feb-17 21:33N 54°31' E 018°47'7 7.5
2017-Feb-17 20:33N 54°24' E 018°41'2 1.8
2017-Feb-17 19:33N 54°22' E 018°40'0 0.0
2017-Feb-17 18:33N 54°22' E 018°40'0 0.0
2017-Feb-17 17:33N 54°22' E 018°40'0 0.0
2017-Feb-17 16:33N 54°22' E 018°40'0 0.0
2017-Feb-17 15:33N 54°22' E 018°40'0 0.0
2017-Feb-17 14:33N 54°22' E 018°40'0 0.0
2017-Feb-17 13:33N 54°22' E 018°40'0 0.0
2017-Feb-17 12:33N 54°22' E 018°40'0 0.0
2017-Feb-17 11:33N 54°22' E 018°40'0 0.0
2017-Feb-17 10:33N 54°22' E 018°40'0 0.0
2017-Feb-17 09:33N 54°22' E 018°40'0 0.0
2017-Feb-17 08:33N 54°22' E 018°40'0 0.0
2017-Feb-17 07:33N 54°22' E 018°40'0 0.0
2017-Feb-17 06:33N 54°22' E 018°40'0 0.0
2017-Feb-17 05:33N 54°22' E 018°40'0 0.0
2017-Feb-17 04:33N 54°22' E 018°40'0 0.0
2017-Feb-17 03:33N 54°22' E 018°40'0 0.0
2017-Feb-17 02:33N 54°22' E 018°40'0 0.0
2017-Feb-17 01:33N 54°22' E 018°40'0 0.0
2017-Feb-17 00:33N 54°22' E 018°40'0 0.0
2017-Feb-16 23:33N 54°22' E 018°40'0 0.0
2017-Feb-16 22:33N 54°22' E 018°40'0 0.0
2017-Feb-16 21:33N 54°22' E 018°40'0 0.0
2017-Feb-16 20:33N 54°22' E 018°40'0 0.0
2017-Feb-16 19:33N 54°22' E 018°40'0 0.0
2017-Feb-16 18:33N 54°22' E 018°40'0 0.0
2017-Feb-16 17:33N 54°22' E 018°40'0 0.0
2017-Feb-16 16:33N 54°22' E 018°40'0 0.0
2017-Feb-16 15:33N 54°22' E 018°40'0 0.0
2017-Feb-16 14:33N 54°22' E 018°40'0 0.0
2017-Feb-16 13:30N 54°22' E 018°40'0 0.0
2017-Feb-16 12:33N 54°22' E 018°40'0 0.2
2017-Feb-16 11:31N 54°22' E 018°40'0 0.0
2017-Feb-16 10:31N 54°22' E 018°40'0 0.0
2017-Feb-16 09:31N 54°22' E 018°40'0 0.0
2017-Feb-16 08:31N 54°22' E 018°40'0 0.0
2017-Feb-16 07:31N 54°22' E 018°40'0 0.0
2017-Feb-16 06:31N 54°22' E 018°40'0 0.0
2017-Feb-16 05:31N 54°22' E 018°40'0 0.0
2017-Feb-16 04:31N 54°22' E 018°40'0 0.0
2017-Feb-16 03:31N 54°22' E 018°40'0 0.0
2017-Feb-16 02:31N 54°22' E 018°40'0 0.0
2017-Feb-16 01:31N 54°22' E 018°40'0 0.0
2017-Feb-16 00:31N 54°22' E 018°40'0 0.0
2017-Feb-15 23:31N 54°22' E 018°40'0 0.0
2017-Feb-15 22:31N 54°22' E 018°40'0 0.0
2017-Feb-15 21:31N 54°22' E 018°40'0 0.0
2017-Feb-15 20:28N 54°22' E 018°40'0 0.0
2017-Feb-15 19:31N 54°22' E 018°40'0 0.0
2017-Feb-15 18:31N 54°22' E 018°40'0 0.0
2017-Feb-15 17:28N 54°22' E 018°40'0 0.0
2017-Feb-15 16:31N 54°22' E 018°40'0 0.0
2017-Feb-15 15:31N 54°22' E 018°40'0 0.0
2017-Feb-15 14:31N 54°22' E 018°40'0 0.0
2017-Feb-15 13:31N 54°22' E 018°40'0 0.0
2017-Feb-15 12:31N 54°22' E 018°40'0 0.0
2017-Feb-15 11:31N 54°22' E 018°40'0 0.0
2017-Feb-15 10:31N 54°22' E 018°40'0 0.0
2017-Feb-15 09:31N 54°22' E 018°40'0 0.0
2017-Feb-15 08:31N 54°22' E 018°40'0 0.0
2017-Feb-15 07:31N 54°22' E 018°40'0 0.0
2017-Feb-15 06:31N 54°22' E 018°40'1 1.4
2017-Feb-15 05:33N 54°24' E 018°40'7 6.7
2017-Feb-15 04:33N 54°30' E 018°44'6 6.4
2017-Feb-15 03:33N 54°35' E 018°52'7 6.6
2017-Feb-15 02:33N 54°41' E 018°57'6 5.7
2017-Feb-15 01:33N 54°46' E 018°57'6 6.3
2017-Feb-15 00:33N 54°50' E 018°49'6 6.0
2017-Feb-14 23:33N 54°54' E 018°41'5 5.3
2017-Feb-14 22:33N 54°57' E 018°33'6 5.7
2017-Feb-14 21:33N 54°56' E 018°23'  
Track history (hours):
 
Tides and Currents Weather Stations Pressure Air Temp Water Temp Dewpoint Dewpoint Depression Visibility Wind Speed Wind Dir Waves Ship Positions

Wilson Gdynia

Last reported at 2017-Feb-24 10:33 UTC. Time now 2017-Feb-24 10:41 UTC.
Position N 54°34' E 011°19'.

Length 88 m; draft 5.6 m.

Type: Ship (hazmat cat C). MMSI: 314192000.

Date/timePositionNaut miles runAvg speedWind from/ knotsBaromVisibWave heightAir tempDewpointWater temp
2017-Feb-24 10:33N 54°34' E 011°19'9 8.8
2017-Feb-24 09:33N 54°30' E 011°33'9 8.8
2017-Feb-24 08:33N 54°27' E 011°47'9 8.7
2017-Feb-24 07:33N 54°27' E 012°02'8 8.1
2017-Feb-24 06:34N 54°32' E 012°12'9 9.2
2017-Feb-24 05:33N 54°39' E 012°22'198 8.2
2017-Feb-23 05:18N 54°57' E 018°04'2 3.2
2017-Feb-23 04:33N 54°57' E 018°08'4 3.6
2017-Feb-23 03:33N 54°57' E 018°14'4 4.0
2017-Feb-23 02:34N 54°57' E 018°21'4 3.9
2017-Feb-23 01:33N 54°57' E 018°28'4 4.0
2017-Feb-23 00:33N 54°57' E 018°35'5 5.4
2017-Feb-22 23:34N 54°53' E 018°42'7 6.9
2017-Feb-22 22:34N 54°49' E 018°52'7 6.8
2017-Feb-22 21:34N 54°44' E 018°59'9 8.9
2017-Feb-22 20:34N 54°35' E 018°54'10 9.9
2017-Feb-22 19:33N 54°28' E 018°42'6 6.0
2017-Feb-22 18:33N 54°22' E 018°40'0 0.5
2017-Feb-22 17:32N 54°22' E 018°40'0 0.0
2017-Feb-22 16:32N 54°22' E 018°40'0 0.0
2017-Feb-22 15:32N 54°22' E 018°40'0 0.0
2017-Feb-22 14:32N 54°22' E 018°40'0 0.0
2017-Feb-22 13:32N 54°22' E 018°40'0 0.0
2017-Feb-22 12:32N 54°22' E 018°40'0 0.0
2017-Feb-22 11:32N 54°22' E 018°40'0 0.0
2017-Feb-22 10:32N 54°22' E 018°40'0 0.0
2017-Feb-22 09:32N 54°22' E 018°40'0 0.0
2017-Feb-22 08:32N 54°22' E 018°40'0 0.0
2017-Feb-22 07:32N 54°22' E 018°40'0 0.0
2017-Feb-22 06:32N 54°22' E 018°40'0 0.0
2017-Feb-22 05:32N 54°22' E 018°40'0 0.0
2017-Feb-22 04:32N 54°22' E 018°40'0 0.0
2017-Feb-22 03:32N 54°22' E 018°40'0 0.0
2017-Feb-22 02:32N 54°22' E 018°40'0 0.0
2017-Feb-22 01:32N 54°22' E 018°40'0 0.0
2017-Feb-22 00:32N 54°22' E 018°40'0 0.0
2017-Feb-21 23:32N 54°22' E 018°40'0 0.0
2017-Feb-21 22:32N 54°22' E 018°40'0 0.0
2017-Feb-21 21:32N 54°22' E 018°40'0 0.0
2017-Feb-21 20:32N 54°22' E 018°40'0 0.0
2017-Feb-21 19:29N 54°22' E 018°40'0 0.1
2017-Feb-21 18:32N 54°22' E 018°40'0 0.0
2017-Feb-21 17:32N 54°22' E 018°40'0 0.0
2017-Feb-21 16:29N 54°22' E 018°40'0 0.0
2017-Feb-21 15:32N 54°22' E 018°40'0 0.0
2017-Feb-21 14:32N 54°22' E 018°40'0 0.0
2017-Feb-21 13:32N 54°22' E 018°40'0 0.0
2017-Feb-21 12:32N 54°22' E 018°40'0 0.0
2017-Feb-21 11:32N 54°22' E 018°40'0 0.0
2017-Feb-21 10:32N 54°22' E 018°40'1 1.3
2017-Feb-21 09:33N 54°24' E 018°41'7 7.0
2017-Feb-21 08:33N 54°30' E 018°45'8 7.9
2017-Feb-21 07:34N 54°36' E 018°53'8 8.2
2017-Feb-21 06:33N 54°43' E 019°02'6 5.7
2017-Feb-21 05:33N 54°47' E 019°09'5 5.1
2017-Feb-21 04:33N 54°50' E 019°16'5 4.7
2017-Feb-21 03:33N 54°53' E 019°22'4 4.3
2017-Feb-21 02:33N 54°56' E 019°27'  
2017-Feb-18 01:23N 54°58' E 019°31'8 9.6
2017-Feb-18 00:33N 54°52' E 019°21'9 9.5
2017-Feb-17 23:33N 54°46' E 019°09'1010.0
2017-Feb-17 22:33N 54°39' E 018°57'1010.0
2017-Feb-17 21:33N 54°31' E 018°47'7 7.5
2017-Feb-17 20:33N 54°24' E 018°41'2 1.8
2017-Feb-17 19:33N 54°22' E 018°40'0 0.0
2017-Feb-17 18:33N 54°22' E 018°40'0 0.0
2017-Feb-17 17:33N 54°22' E 018°40'0 0.0
2017-Feb-17 16:33N 54°22' E 018°40'0 0.0
2017-Feb-17 15:33N 54°22' E 018°40'0 0.0
2017-Feb-17 14:33N 54°22' E 018°40'0 0.0
2017-Feb-17 13:33N 54°22' E 018°40'0 0.0
2017-Feb-17 12:33N 54°22' E 018°40'0 0.0
2017-Feb-17 11:33N 54°22' E 018°40'0 0.0
2017-Feb-17 10:33N 54°22' E 018°40'0 0.0
2017-Feb-17 09:33N 54°22' E 018°40'0 0.0
2017-Feb-17 08:33N 54°22' E 018°40'0 0.0
2017-Feb-17 07:33N 54°22' E 018°40'0 0.0
2017-Feb-17 06:33N 54°22' E 018°40'0 0.0
2017-Feb-17 05:33N 54°22' E 018°40'0 0.0
2017-Feb-17 04:33N 54°22' E 018°40'0 0.0
2017-Feb-17 03:33N 54°22' E 018°40'0 0.0
2017-Feb-17 02:33N 54°22' E 018°40'0 0.0
2017-Feb-17 01:33N 54°22' E 018°40'0 0.0
2017-Feb-17 00:33N 54°22' E 018°40'0 0.0
2017-Feb-16 23:33N 54°22' E 018°40'0 0.0
2017-Feb-16 22:33N 54°22' E 018°40'0 0.0
2017-Feb-16 21:33N 54°22' E 018°40'0 0.0
2017-Feb-16 20:33N 54°22' E 018°40'0 0.0
2017-Feb-16 19:33N 54°22' E 018°40'0 0.0
2017-Feb-16 18:33N 54°22' E 018°40'0 0.0
2017-Feb-16 17:33N 54°22' E 018°40'0 0.0
2017-Feb-16 16:33N 54°22' E 018°40'0 0.0
2017-Feb-16 15:33N 54°22' E 018°40'0 0.0
2017-Feb-16 14:33N 54°22' E 018°40'0 0.0
2017-Feb-16 13:30N 54°22' E 018°40'0 0.0
2017-Feb-16 12:33N 54°22' E 018°40'0 0.2
2017-Feb-16 11:31N 54°22' E 018°40'0 0.0
2017-Feb-16 10:31N 54°22' E 018°40'0 0.0
2017-Feb-16 09:31N 54°22' E 018°40'0 0.0
2017-Feb-16 08:31N 54°22' E 018°40'0 0.0
2017-Feb-16 07:31N 54°22' E 018°40'0 0.0
2017-Feb-16 06:31N 54°22' E 018°40'0 0.0
2017-Feb-16 05:31N 54°22' E 018°40'0 0.0
2017-Feb-16 04:31N 54°22' E 018°40'0 0.0
2017-Feb-16 03:31N 54°22' E 018°40'0 0.0
2017-Feb-16 02:31N 54°22' E 018°40'0 0.0
2017-Feb-16 01:31N 54°22' E 018°40'0 0.0
2017-Feb-16 00:31N 54°22' E 018°40'0 0.0
2017-Feb-15 23:31N 54°22' E 018°40'0 0.0
2017-Feb-15 22:31N 54°22' E 018°40'0 0.0
2017-Feb-15 21:31N 54°22' E 018°40'0 0.0
2017-Feb-15 20:28N 54°22' E 018°40'0 0.0
2017-Feb-15 19:31N 54°22' E 018°40'0 0.0
2017-Feb-15 18:31N 54°22' E 018°40'0 0.0
2017-Feb-15 17:28N 54°22' E 018°40'0 0.0
2017-Feb-15 16:31N 54°22' E 018°40'0 0.0
2017-Feb-15 15:31N 54°22' E 018°40'0 0.0
2017-Feb-15 14:31N 54°22' E 018°40'0 0.0
2017-Feb-15 13:31N 54°22' E 018°40'0 0.0
2017-Feb-15 12:31N 54°22' E 018°40'0 0.0
2017-Feb-15 11:31N 54°22' E 018°40'0 0.0
2017-Feb-15 10:31N 54°22' E 018°40'0 0.0
2017-Feb-15 09:31N 54°22' E 018°40'0 0.0
2017-Feb-15 08:31N 54°22' E 018°40'0 0.0
2017-Feb-15 07:31N 54°22' E 018°40'0 0.0
2017-Feb-15 06:31N 54°22' E 018°40'1 1.4
2017-Feb-15 05:33N 54°24' E 018°40'7 6.7
2017-Feb-15 04:33N 54°30' E 018°44'6 6.4
2017-Feb-15 03:33N 54°35' E 018°52'7 6.6
2017-Feb-15 02:33N 54°41' E 018°57'6 5.7
2017-Feb-15 01:33N 54°46' E 018°57'6 6.3
2017-Feb-15 00:33N 54°50' E 018°49'6 6.0
2017-Feb-14 23:33N 54°54' E 018°41'5 5.3
2017-Feb-14 22:33N 54°57' E 018°33'6 5.7
2017-Feb-14 21:33N 54°56' E 018°23'  

Dump ship's entire track history